Avila Beach, California
Current Conditions -  °F | °C
As of 7:56 AM on Thursday 18 Dec 2014 (Local Time) from KSBP Reporting Station
Overcast Overcast  
Wind Chill: 50°   Ceiling: 3400
Heat Index: 50°   Visibility: 10mi
Dew Point: 48°   Wind: 7mph
Humidity: 93%   Direction: 110°ESE
Pressure: 30.15"   Gusts: NA
Location:  35.18°N, 120.73°W
Report Text: KSBP 181556Z 11006KT 10SM SCT021 OVC034 10/09 A3015 RMK AO2 RAE14 SLP211 P0000 T01000089
Loading
Personal Weather Stations






























Interactive Weather Map New forecast layout! Learn more

10-Day Weather Forecast

Advertisements
Track Severe Weather on mobile